Western Neb. Rgnl/William B. Heilig Airport
KBFF : now visible

Airfield :











YOU CAN JOIN US ON...

 
LOGIN :

Register | Disclaimer

   EN    FR    IT 

 









Legend :    VFR   Marginal VFR   IFR   Intensive IFR   Very Intensive IFR
Visi :
Ceiling :
>= 8 km
>= 3000ft
5 to 8 km
1000 to 3000 ft
1500m to 5 km
500 to 1000 ft
800 to 1500m
200 to 500 ft
< 800m
< 200 ft
Symbols :   Thunderstorms  Fog  Heavy snow  Heavy precipitations  Wind > 20 kt






- Airport Elevation : 3967 ft
- IATA code : BFF


KBFF - Western Neb. Rgnl/William B. Heilig

CURRENT METAR :
  • 021553Z AUTO 18007KT 10SM CLR 24/15 A3010 RMK AO2 SLP149 T02390150 $

EXPIRED METARs :
  • 021453Z AUTO 18009KT 10SM CLR 21/14 A3010 RMK AO2 SLP152 T02110144 50002 $
  • 020253Z AUTO 05009KT 10SM FEW110 19/13 A3006 RMK AO2 LTG DSNT E AND SW RAE02 TSE0158 SLP141 P0000 60001 T01940128 50022 $
  • 021353Z AUTO 15008KT 10SM CLR 19/14 A3010 RMK AO2 SLP156 T01890144 $

TAF KBFF
Valid from the 02 at 12:00 until the 03 at 12:00 UTC


021122Z 0212/0312 10004KT P6SM SCT010
FM022100 12007KT P6SM SCT080 BKN200
KZDV FIR / North America



MET'MAP, your aeronautical weather chart ! - Copyright ORBIFLY December 2007 - Disclaimer

ORBIFLY MET'MAP TEAM :

Programming & Development : Alexandra Zaïnal
Original concept : Baudouin d'Aumeries
Technical & hardware support : Manuel Goepfert
Assistance : Marc-Olivier Méhu




SOURCES & CREDITS :

   NOAA       Earth
Advisory